Fenn, Idaho
Current Conditions -  °F | °C
As of 4:35 AM on Sunday 23 Nov 2014 (Local Time) from KGIC Reporting Station
Scattered Clouds Scattered Clouds  
Wind Chill: 26°   Ceiling: Unl
Heat Index: 34°   Visibility: 10mi
Dew Point: 26°   Wind: 9mph
Humidity: 73%   Direction: 230°SW
Pressure: 30.18"   Gusts: 23mph
Location:  45.96°N, 116.26°W
Report Text: KGIC 231235Z AUTO 23008G20KT 10SM SCT034 SCT050 01/M03 A3018 RMK AO1 T00101034
Loading
Personal Weather Stations






























Interactive Weather Map New forecast layout! Learn more

10-Day Weather Forecast

Advertisements
Track Severe Weather on mobile